Time;durP1;ratioP1;P1;durP2;ratioP2;P2;SDS_P1;SDS_P2;PMS_P1;PMS_P2;Temp;Humidity;BMP_temperature;BMP_pressure;BME280_temperature;BME280_humidity;BME280_pressure;Samples;Min_cycle;Max_cycle;Signal;HPM_P1;HPM_P2
2022/06/13 00:01:43;;;;;;;13.97;11.97;;;11.70;99.90;;;;;;5054239;28;20504;-66
2022/06/13 00:04:10;;;;;;;14.27;11.50;;;11.60;99.90;;;;;;5056770;28;20494;-66
2022/06/13 00:06:38;;;;;;;14.50;11.97;;;11.50;99.90;;;;;;5055946;28;20467;-67
2022/06/13 00:09:06;;;;;;;14.93;11.60;;;11.50;99.90;;;;;;5058424;28;20498;-67
2022/06/13 00:11:33;;;;;;;13.43;12.10;;;11.40;99.90;;;;;;5056479;28;20471;-67
2022/06/13 00:14:00;;;;;;;12.67;11.53;;;11.40;99.90;;;;;;5057753;28;20483;-67
2022/06/13 00:16:27;;;;;;;12.53;11.43;;;11.40;99.90;;;;;;5058054;28;20478;-66
2022/06/13 00:18:55;;;;;;;12.50;11.10;;;11.40;99.90;;;;;;5055722;28;20459;-66
2022/06/13 00:24:07;;;;;;;12.87;11.70;;;11.30;99.90;;;;;;5055963;28;21030;-67
2022/06/13 00:26:36;;;;;;;12.90;11.80;;;11.30;99.90;;;;;;5051665;28;20804;-67
2022/06/13 00:29:05;;;;;;;14.53;13.20;;;11.20;99.90;;;;;;5053736;28;20551;-67
2022/06/13 00:31:32;;;;;;;13.27;12.17;;;11.20;99.90;;;;;;5052464;28;20959;-66
2022/06/13 00:33:59;;;;;;;12.87;11.77;;;11.20;99.90;;;;;;5060096;28;20464;-66
2022/06/13 00:36:26;;;;;;;12.80;11.50;;;11.20;99.90;;;;;;5055155;28;20471;-67
2022/06/13 00:38:55;;;;;;;14.47;12.87;;;11.20;99.90;;;;;;5049486;28;20467;-67
2022/06/13 00:41:28;;;;;;;14.67;13.07;;;11.20;99.90;;;;;;5055545;28;20494;-67
2022/06/13 00:43:56;;;;;;;14.03;12.67;;;11.20;99.90;;;;;;5054022;28;20502;-66
2022/06/13 00:46:26;;;;;;;12.00;11.10;;;11.20;99.90;;;;;;5055242;28;20507;-67
2022/06/13 00:49:04;;;;;;;12.97;11.97;;;11.10;99.90;;;;;;5053645;28;20460;-67
2022/06/13 00:51:35;;;;;;;14.17;12.87;;;11.00;99.90;;;;;;5048254;28;20989;-67
2022/06/13 00:54:02;;;;;;;14.47;13.20;;;10.90;99.90;;;;;;5056015;28;20520;-66
2022/06/13 00:56:34;;;;;;;13.73;12.43;;;10.90;99.90;;;;;;5056313;28;20464;-67
2022/06/13 00:59:05;;;;;;;14.83;13.33;;;10.90;99.90;;;;;;5059290;28;20478;-67
2022/06/13 01:01:33;;;;;;;16.60;12.70;;;10.90;99.90;;;;;;5050110;28;20463;-66
2022/06/13 01:04:03;;;;;;;14.30;13.03;;;10.90;99.90;;;;;;5052903;28;20487;-67
2022/06/13 01:06:33;;;;;;;18.37;13.80;;;10.90;99.90;;;;;;5048590;28;20466;-66
2022/06/13 01:09:02;;;;;;;14.73;13.50;;;10.80;99.90;;;;;;5057279;28;20489;-67
2022/06/13 01:11:31;;;;;;;14.63;13.30;;;10.80;99.90;;;;;;5052991;28;20487;-67
2022/06/13 01:14:27;;;;;;;15.33;14.07;;;10.80;99.90;;;;;;5055398;28;20492;-66
2022/06/13 01:17:10;;;;;;;14.37;12.93;;;10.80;99.90;;;;;;5053931;28;20475;-66
2022/06/13 01:20:06;;;;;;;15.50;14.00;;;10.90;99.90;;;;;;5050120;28;20922;-67
2022/06/13 01:23:17;;;;;;;14.60;13.17;;;10.90;99.90;;;;;;5058932;28;20451;-67
2022/06/13 01:26:31;;;;;;;14.67;13.23;;;10.80;99.90;;;;;;5050325;28;20466;-66
2022/06/13 01:29:40;;;;;;;14.70;13.40;;;10.80;99.90;;;;;;5053294;28;20503;-66
2022/06/13 01:32:20;;;;;;;15.33;13.90;;;10.80;99.90;;;;;;5049768;28;20509;-67
2022/06/13 01:34:59;;;;;;;14.57;13.37;;;10.80;99.90;;;;;;5054436;28;20864;-66
2022/06/13 01:37:38;;;;;;;14.23;12.83;;;10.80;99.90;;;;;;5046568;28;20467;-66
2022/06/13 01:40:14;;;;;;;13.17;12.23;;;10.80;99.90;;;;;;5051057;28;20463;-66
2022/06/13 01:42:55;;;;;;;15.27;13.67;;;10.70;99.90;;;;;;5051800;28;20470;-67
2022/06/13 01:45:35;;;;;;;16.03;13.43;;;10.70;99.90;;;;;;5052914;28;20468;-66
2022/06/13 01:48:10;;;;;;;13.83;12.70;;;10.60;99.90;;;;;;5055190;28;20467;-67
2022/06/13 01:50:43;;;;;;;16.43;14.77;;;10.60;99.90;;;;;;5047524;28;20468;-67
2022/06/13 01:53:21;;;;;;;16.57;14.30;;;10.50;99.90;;;;;;5051263;28;20989;-66
2022/06/13 01:55:57;;;;;;;25.33;14.63;;;10.50;99.90;;;;;;5054092;28;20499;-67
2022/06/13 01:58:34;;;;;;;17.50;14.87;;;10.60;99.90;;;;;;5051166;28;20961;-67
2022/06/13 02:01:05;;;;;;;16.17;14.40;;;10.80;99.90;;;;;;5054252;28;20480;-66
2022/06/13 02:03:39;;;;;;;15.13;13.60;;;11.00;99.90;;;;;;5056642;28;20559;-66
2022/06/13 02:06:12;;;;;;;13.97;12.67;;;11.00;99.90;;;;;;5053440;28;20505;-66
2022/06/13 02:08:44;;;;;;;14.70;13.23;;;11.10;99.90;;;;;;5058656;28;20486;-67
2022/06/13 02:11:17;;;;;;;16.00;13.33;;;11.10;99.90;;;;;;5057781;28;20878;-66
2022/06/13 02:13:48;;;;;;;14.63;13.43;;;11.10;99.90;;;;;;5052766;28;20463;-66
2022/06/13 02:16:19;;;;;;;13.70;12.50;;;11.20;99.90;;;;;;5056024;28;20470;-67
2022/06/13 02:18:58;;;;;;;13.23;12.10;;;11.10;99.90;;;;;;5055352;28;20467;-66
2022/06/13 02:21:31;;;;;;;14.73;13.07;;;11.10;99.90;;;;;;5054100;28;20471;-67
2022/06/13 02:24:00;;;;;;;15.33;13.77;;;11.10;99.90;;;;;;5054993;28;20491;-67
2022/06/13 02:26:32;;;;;;;16.00;14.50;;;11.10;99.90;;;;;;5051573;28;20475;-66
2022/06/13 02:29:04;;;;;;;16.47;14.37;;;11.00;99.90;;;;;;5054846;28;20570;-66
2022/06/13 02:31:35;;;;;;;18.40;14.20;;;11.10;99.90;;;;;;5054503;28;20463;-67
2022/06/13 02:34:09;;;;;;;20.83;13.57;;;11.10;99.90;;;;;;5054349;28;21016;-65
2022/06/13 02:36:42;;;;;;;16.23;14.60;;;11.20;99.90;;;;;;5054228;28;20462;-67
2022/06/13 02:39:14;;;;;;;15.17;13.57;;;11.20;99.90;;;;;;5050933;28;20949;-67
2022/06/13 02:41:45;;;;;;;15.27;13.83;;;11.20;99.90;;;;;;5050744;28;20458;-67
2022/06/13 02:44:16;;;;;;;15.53;13.60;;;11.10;99.90;;;;;;5047984;28;20494;-67
2022/06/13 02:46:46;;;;;;;16.23;14.57;;;11.20;99.90;;;;;;5053827;28;20493;-66
2022/06/13 02:49:18;;;;;;;17.13;12.90;;;11.20;99.90;;;;;;5047907;28;20459;-66
2022/06/13 02:51:55;;;;;;;14.80;13.33;;;11.30;99.90;;;;;;5055104;28;20470;-66
2022/06/13 02:54:30;;;;;;;13.83;12.73;;;11.30;99.90;;;;;;5054270;28;20524;-66
2022/06/13 02:57:25;;;;;;;13.67;12.53;;;11.30;99.90;;;;;;5052239;28;20463;-67
2022/06/13 03:00:18;;;;;;;14.40;12.97;;;11.20;99.90;;;;;;5051518;28;20553;-67
2022/06/13 03:02:52;;;;;;;14.53;13.07;;;11.00;99.90;;;;;;5054214;28;20466;-67
2022/06/13 03:05:55;;;;;;;13.50;12.10;;;11.20;99.90;;;;;;5055914;28;20831;-66
2022/06/13 03:08:38;;;;;;;13.30;12.00;;;11.40;99.90;;;;;;5058598;28;20487;-66
2022/06/13 03:11:12;;;;;;;18.63;13.10;;;11.40;99.90;;;;;;5060809;28;20466;-66
2022/06/13 03:13:44;;;;;;;21.10;12.33;;;11.50;99.90;;;;;;5059954;28;20811;-68
2022/06/13 03:16:19;;;;;;;14.13;12.40;;;11.50;99.90;;;;;;5058366;28;20460;-66
2022/06/13 03:18:52;;;;;;;16.47;11.87;;;11.60;99.90;;;;;;5059877;28;20894;-67
2022/06/13 03:21:28;;;;;;;16.20;12.27;;;11.60;99.90;;;;;;5053628;28;20855;-67
2022/06/13 03:24:00;;;;;;;13.60;11.83;;;11.80;99.90;;;;;;5054378;28;20525;-67
2022/06/13 03:26:30;;;;;;;20.23;12.33;;;11.90;99.90;;;;;;5060977;28;20462;-66
2022/06/13 03:29:02;;;;;;;12.90;11.63;;;12.00;99.90;;;;;;5060191;28;20471;-67
2022/06/13 03:31:37;;;;;;;14.77;11.93;;;12.10;99.90;;;;;;5058030;28;20467;-66
2022/06/13 03:34:09;;;;;;;17.40;11.27;;;12.20;99.90;;;;;;5057961;28;20501;-68
2022/06/13 03:36:41;;;;;;;13.23;11.23;;;12.30;99.90;;;;;;5057060;28;20482;-66
2022/06/13 03:39:15;;;;;;;14.60;11.63;;;12.30;99.90;;;;;;5056765;28;20826;-67
2022/06/13 03:41:47;;;;;;;13.03;10.17;;;12.40;99.90;;;;;;5054630;28;20594;-66
2022/06/13 03:44:19;;;;;;;13.10;11.10;;;12.50;99.90;;;;;;5055038;28;20483;-68
2022/06/13 03:46:50;;;;;;;12.10;10.57;;;12.60;99.90;;;;;;5054277;28;20570;-66
2022/06/13 03:49:23;;;;;;;12.73;11.40;;;12.60;99.90;;;;;;5055467;28;20800;-66
2022/06/13 03:51:53;;;;;;;13.30;10.30;;;12.50;99.90;;;;;;5057398;28;20545;-66
2022/06/13 03:54:27;;;;;;;11.37;10.23;;;12.50;99.90;;;;;;5058548;28;20466;-66
2022/06/13 03:57:00;;;;;;;18.67;11.73;;;12.50;99.90;;;;;;5059593;28;20468;-67
2022/06/13 03:59:32;;;;;;;12.87;11.53;;;12.40;99.90;;;;;;5055345;28;20475;-67
2022/06/13 04:02:03;;;;;;;16.33;12.20;;;12.40;99.90;;;;;;5048795;28;20988;-67
2022/06/13 04:04:34;;;;;;;14.40;13.20;;;12.30;99.90;;;;;;5029596;28;20499;-67
2022/06/13 04:07:03;;;;;;;15.07;13.67;;;12.20;99.90;;;;;;5029999;28;20464;-66
2022/06/13 04:09:33;;;;;;;14.90;13.10;;;12.20;99.90;;;;;;5030427;28;20766;-67
2022/06/13 04:12:24;;;;;;;16.57;13.03;;;12.20;99.90;;;;;;5030868;28;20468;-67
2022/06/13 04:15:11;;;;;;;15.23;12.70;;;12.10;99.90;;;;;;5030365;28;20467;-67
2022/06/13 04:17:49;;;;;;;18.07;13.67;;;12.20;99.90;;;;;;5031209;28;20464;-66
2022/06/13 04:20:27;;;;;;;17.60;12.77;;;12.40;99.90;;;;;;5031528;28;20529;-67
2022/06/13 04:23:00;;;;;;;16.60;13.07;;;12.40;99.90;;;;;;5029900;28;20568;-66
2022/06/13 04:25:33;;;;;;;15.40;13.13;;;12.50;99.90;;;;;;5028805;28;20503;-67
2022/06/13 04:28:04;;;;;;;14.33;12.67;;;12.50;99.90;;;;;;5030889;28;20808;-67
2022/06/13 04:30:33;;;;;;;13.93;12.50;;;12.60;99.90;;;;;;5030635;28;20490;-67
2022/06/13 04:33:06;;;;;;;18.77;12.00;;;12.60;99.90;;;;;;5029426;28;20487;-67
2022/06/13 04:35:34;;;;;;;14.03;12.20;;;12.70;99.90;;;;;;5030738;28;20499;-67
2022/06/13 04:38:06;;;;;;;14.60;12.40;;;12.90;99.90;;;;;;5029324;28;20951;-67
2022/06/13 04:40:36;;;;;;;16.27;14.57;;;12.90;99.90;;;;;;5029769;28;20471;-66
2022/06/13 04:43:07;;;;;;;16.27;13.00;;;12.90;99.90;;;;;;5030242;28;20970;-67
2022/06/13 04:45:46;;;;;;;21.73;14.30;;;13.00;99.90;;;;;;5030527;28;20534;-66
2022/06/13 04:48:14;;;;;;;17.60;16.20;;;13.20;99.90;;;;;;5030255;28;20467;-67
2022/06/13 04:50:44;;;;;;;20.90;19.20;;;13.30;99.90;;;;;;5030644;28;20470;-67
2022/06/13 04:53:18;;;;;;;26.03;23.77;;;13.30;99.90;;;;;;5030135;28;20955;-66
2022/06/13 04:55:47;;;;;;;26.40;24.50;;;13.20;99.90;;;;;;5030283;28;20477;-67
2022/06/13 04:58:26;;;;;;;28.60;26.07;;;13.30;99.90;;;;;;5029066;28;21154;-67
2022/06/13 05:00:59;;;;;;;29.73;27.27;;;13.40;99.90;;;;;;5030819;28;20460;-66
2022/06/13 05:03:30;;;;;;;29.77;27.00;;;13.30;99.90;;;;;;5028263;28;20456;-66
2022/06/13 05:06:01;;;;;;;28.80;26.50;;;13.10;99.90;;;;;;5029304;28;20529;-67
2022/06/13 05:08:31;;;;;;;30.73;28.17;;;13.10;99.90;;;;;;5029197;28;20655;-67
2022/06/13 05:11:06;;;;;;;31.60;28.97;;;13.00;99.90;;;;;;5029836;28;20509;-65
2022/06/13 05:13:33;;;;;;;29.90;27.70;;;13.00;99.90;;;;;;5029266;28;20459;-65
2022/06/13 05:16:10;;;;;;;29.87;27.47;;;13.20;99.90;;;;;;5029602;28;20467;-67
2022/06/13 05:18:52;;;;;;;29.47;26.53;;;13.30;99.90;;;;;;5030057;28;20503;-66
2022/06/13 05:21:32;;;;;;;29.73;26.63;;;13.20;99.90;;;;;;5029363;28;21044;-65
2022/06/13 05:24:15;;;;;;;28.83;26.23;;;13.20;99.90;;;;;;5029505;28;20525;-65
2022/06/13 05:26:42;;;;;;;29.57;25.63;;;13.30;99.90;;;;;;5029145;28;20475;-66
2022/06/13 05:29:10;;;;;;;30.60;25.00;;;13.60;99.90;;;;;;5029513;28;20471;-66
2022/06/13 05:31:37;;;;;;;25.70;23.47;;;13.70;99.90;;;;;;5029712;28;20472;-65
2022/06/13 05:34:08;;;;;;;25.10;22.60;;;13.80;99.90;;;;;;5027846;28;20471;-66
2022/06/13 05:36:36;;;;;;;22.10;20.37;;;13.80;99.90;;;;;;5049900;28;20460;-67
2022/06/13 05:39:08;;;;;;;25.97;21.30;;;13.90;99.90;;;;;;5052133;28;20884;-66
2022/06/13 05:41:34;;;;;;;23.07;20.23;;;13.80;99.90;;;;;;5058982;28;20463;-65
2022/06/13 05:44:01;;;;;;;23.60;19.83;;;13.80;99.90;;;;;;5041730;28;20475;-66
2022/06/13 05:46:31;;;;;;;21.73;19.63;;;13.70;99.90;;;;;;5054323;28;20467;-66
2022/06/13 05:48:59;;;;;;;26.93;18.50;;;13.60;99.90;;;;;;5052454;28;20466;-66
2022/06/13 05:51:26;;;;;;;20.30;18.13;;;13.70;99.90;;;;;;5044648;28;20455;-67
2022/06/13 05:53:53;;;;;;;26.80;16.23;;;13.80;99.90;;;;;;5027516;28;20462;-66
2022/06/13 05:56:24;;;;;;;18.03;16.00;;;14.00;99.90;;;;;;5029037;28;20470;-67
2022/06/13 05:58:51;;;;;;;23.57;15.70;;;14.20;99.90;;;;;;5029328;28;20867;-66
2022/06/13 06:01:17;;;;;;;22.40;14.87;;;14.50;99.90;;;;;;5032096;28;20475;-66
2022/06/13 06:03:46;;;;;;;20.37;13.70;;;14.80;99.90;;;;;;5051453;28;20468;-66
2022/06/13 06:06:16;;;;;;;14.83;11.77;;;15.10;99.90;;;;;;5032058;28;20496;-67
2022/06/13 06:08:43;;;;;;;20.47;13.40;;;15.30;99.90;;;;;;5026624;28;20514;-66
2022/06/13 06:11:10;;;;;;;15.13;13.17;;;15.40;99.90;;;;;;5026844;28;20479;-67
2022/06/13 06:13:38;;;;;;;22.07;13.90;;;15.50;99.90;;;;;;5027995;28;20517;-68
2022/06/13 06:16:05;;;;;;;21.73;14.97;;;15.70;99.90;;;;;;5025740;28;20610;-67
2022/06/13 06:18:33;;;;;;;26.30;14.77;;;15.90;99.90;;;;;;5026926;28;20448;-66
2022/06/13 06:21:00;;;;;;;24.20;13.93;;;16.00;99.90;;;;;;5026776;28;20573;-67
2022/06/13 06:23:27;;;;;;;17.70;14.73;;;16.20;99.90;;;;;;5027642;28;20463;-68
2022/06/13 06:25:54;;;;;;;22.13;16.53;;;16.30;99.90;;;;;;5024995;28;21088;-67
2022/06/13 06:28:23;;;;;;;20.17;17.30;;;16.40;99.90;;;;;;5025247;28;20491;-67
2022/06/13 06:30:52;;;;;;;18.07;16.30;;;16.50;99.90;;;;;;5029635;28;20558;-67
2022/06/13 06:33:20;;;;;;;18.77;16.53;;;16.40;99.90;;;;;;5024139;28;20989;-67
2022/06/13 06:35:48;;;;;;;22.20;16.50;;;16.20;99.90;;;;;;5008835;28;20468;-67
2022/06/13 06:38:15;;;;;;;18.10;16.23;;;16.20;99.90;;;;;;5022446;28;20545;-68
2022/06/13 06:40:42;;;;;;;17.60;15.93;;;16.20;99.90;;;;;;5024150;28;20553;-68
2022/06/13 06:43:09;;;;;;;18.23;16.30;;;16.30;99.90;;;;;;5024258;28;20903;-68
2022/06/13 06:45:37;;;;;;;26.20;18.07;;;16.50;99.90;;;;;;5022484;28;20498;-66
2022/06/13 06:48:06;;;;;;;21.80;17.90;;;16.70;99.90;;;;;;5021891;28;20798;-67
2022/06/13 06:50:35;;;;;;;23.67;17.13;;;16.70;99.90;;;;;;5024135;28;20468;-67
2022/06/13 06:53:02;;;;;;;18.80;17.00;;;16.90;99.90;;;;;;5023645;28;20451;-67
2022/06/13 07:01:04;;;;;;;22.77;19.20;;;16.90;99.90;;;;;;5023762;28;20554;-68
2022/06/13 07:03:32;;;;;;;28.43;20.50;;;16.70;99.90;;;;;;5020970;28;20558;-67
2022/06/13 07:05:59;;;;;;;27.27;22.40;;;16.60;99.90;;;;;;5023282;28;20588;-68
2022/06/13 07:08:27;;;;;;;38.83;21.40;;;16.80;99.90;;;;;;5024679;28;20831;-67
2022/06/13 07:10:54;;;;;;;29.57;20.20;;;17.00;99.90;;;;;;5024585;28;20466;-67
2022/06/13 07:13:21;;;;;;;31.47;20.03;;;16.80;99.90;;;;;;5024325;28;20466;-68
2022/06/13 07:15:48;;;;;;;27.60;20.50;;;16.80;99.90;;;;;;5024932;28;20467;-67
2022/06/13 07:18:15;;;;;;;23.40;19.73;;;16.90;99.90;;;;;;5024373;28;20570;-67
2022/06/13 07:20:44;;;;;;;29.93;21.07;;;17.30;99.90;;;;;;5021790;28;20471;-67
2022/06/13 07:23:11;;;;;;;27.53;23.13;;;17.50;99.90;;;;;;5024174;28;20475;-67
2022/06/13 07:25:38;;;;;;;25.67;22.90;;;17.70;99.90;;;;;;5024269;28;20499;-67
2022/06/13 07:28:05;;;;;;;37.57;22.20;;;17.80;99.90;;;;;;5024886;28;20641;-68
2022/06/13 07:30:32;;;;;;;28.87;21.40;;;17.80;99.90;;;;;;5022394;28;20723;-68
2022/06/13 07:33:00;;;;;;;32.63;22.50;;;17.70;99.90;;;;;;5024379;28;20474;-67
2022/06/13 07:35:27;;;;;;;33.50;21.97;;;17.50;99.90;;;;;;5023525;28;21073;-68
2022/06/13 07:40:41;;;;;;;31.77;21.73;;;17.30;99.90;;;;;;5023308;28;20522;-68
2022/06/13 07:43:11;;;;;;;24.03;21.40;;;17.40;99.90;;;;;;5025034;28;20969;-67
2022/06/13 07:45:39;;;;;;;26.93;20.93;;;17.50;99.90;;;;;;5026867;28;20947;-67
2022/06/13 07:48:08;;;;;;;30.27;21.57;;;17.40;99.90;;;;;;5024996;28;20853;-67
2022/06/13 07:50:35;;;;;;;22.20;19.90;;;17.50;99.90;;;;;;5024241;28;20517;-67
2022/06/13 07:53:03;;;;;;;23.87;19.90;;;17.60;99.90;;;;;;5020724;28;20467;-68
2022/06/13 07:55:32;;;;;;;31.87;20.27;;;17.70;99.90;;;;;;5018615;28;20467;-68
2022/06/13 07:58:00;;;;;;;21.07;18.97;;;17.80;99.90;;;;;;5023508;28;20467;-68
2022/06/13 08:00:31;;;;;;;19.73;18.10;;;17.90;99.90;;;;;;5022973;28;20463;-68
2022/06/13 08:03:01;;;;;;;23.83;20.10;;;18.10;99.90;;;;;;5022403;28;20582;-68
2022/06/13 08:05:28;;;;;;;22.80;20.67;;;18.30;99.90;;;;;;5023432;28;21008;-68
2022/06/13 08:07:55;;;;;;;21.93;20.10;;;19.10;99.90;;;;;;5021822;28;21039;-69
2022/06/13 08:10:23;;;;;;;24.27;19.60;;;20.00;99.90;;;;;;5043871;28;20468;-67
2022/06/13 08:12:50;;;;;;;21.00;18.30;;;20.50;99.90;;;;;;5048561;28;21026;-68
2022/06/13 08:15:18;;;;;;;21.50;19.50;;;20.50;99.90;;;;;;5047773;28;20870;-69
2022/06/13 08:17:44;;;;;;;25.93;18.57;;;21.00;99.90;;;;;;5023770;28;20498;-67
2022/06/13 08:20:12;;;;;;;21.20;18.77;;;21.20;99.90;;;;;;5022851;28;20464;-67
2022/06/13 08:22:44;;;;;;;24.93;20.73;;;21.40;99.90;;;;;;5023713;28;20681;-68
2022/06/13 08:25:17;;;;;;;22.03;19.77;;;21.80;99.90;;;;;;5023816;28;20495;-67
2022/06/13 08:27:45;;;;;;;20.03;18.13;;;21.40;99.90;;;;;;5024078;28;20478;-68
2022/06/13 08:30:14;;;;;;;20.40;18.80;;;20.70;99.90;;;;;;5023410;28;20467;-68
2022/06/13 08:32:41;;;;;;;22.47;18.30;;;20.20;99.90;;;;;;5023782;28;20472;-66
2022/06/13 08:35:08;;;;;;;20.87;18.67;;;20.30;99.90;;;;;;5022742;28;20464;-67
2022/06/13 08:37:35;;;;;;;19.67;18.27;;;20.80;99.90;;;;;;5022997;28;20836;-67
2022/06/13 08:40:02;;;;;;;23.67;17.67;;;21.00;99.90;;;;;;5024431;28;20455;-68
2022/06/13 08:42:34;;;;;;;19.30;17.77;;;20.80;99.90;;;;;;5022482;28;20456;-68
2022/06/13 08:45:07;;;;;;;19.50;17.90;;;21.40;99.90;;;;;;5023040;28;20526;-67
2022/06/13 08:47:44;;;;;;;18.40;16.93;;;21.90;99.90;;;;;;5022655;28;21180;-68
2022/06/13 08:50:28;;;;;;;18.70;16.87;;;21.90;99.90;;;;;;5023388;28;20471;-68
2022/06/13 08:52:57;;;;;;;20.07;18.20;;;21.80;99.90;;;;;;5023590;28;20808;-68
2022/06/13 08:55:34;;;;;;;18.63;17.03;;;21.40;99.90;;;;;;5023384;28;20499;-69
2022/06/13 08:58:15;;;;;;;18.17;16.63;;;21.00;99.90;;;;;;5022560;28;20456;-68
2022/06/13 09:00:48;;;;;;;19.10;17.37;;;20.50;99.90;;;;;;5022837;28;20486;-67
2022/06/13 09:03:19;;;;;;;18.20;16.73;;;19.90;99.90;;;;;;5023215;28;20467;-68
2022/06/13 09:05:56;;;;;;;19.73;17.93;;;19.60;99.90;;;;;;5022945;28;20581;-68
2022/06/13 09:08:34;;;;;;;18.90;17.10;;;19.30;99.90;;;;;;5023149;28;20490;-69
2022/06/13 09:11:07;;;;;;;19.90;17.80;;;19.00;99.90;;;;;;5022880;28;20468;-69
2022/06/13 09:13:39;;;;;;;19.80;17.90;;;19.20;99.90;;;;;;5023462;28;20471;-68
2022/06/13 09:16:12;;;;;;;19.50;17.80;;;19.50;99.90;;;;;;5022395;28;20466;-69
2022/06/13 09:18:47;;;;;;;21.00;18.30;;;20.40;99.90;;;;;;5022142;28;20927;-68
2022/06/13 09:21:18;;;;;;;21.73;17.93;;;21.20;99.90;;;;;;5023124;28;21156;-68
2022/06/13 09:23:55;;;;;;;18.57;17.07;;;21.30;99.90;;;;;;5022523;28;20463;-68
2022/06/13 09:26:28;;;;;;;19.53;17.40;;;21.20;99.90;;;;;;5021001;28;20502;-67
2022/06/13 09:29:04;;;;;;;19.27;17.27;;;21.20;99.90;;;;;;5021024;28;21870;-69
2022/06/13 09:31:38;;;;;;;17.93;16.40;;;20.90;99.90;;;;;;5019766;28;20840;-68
2022/06/13 09:34:11;;;;;;;19.10;16.47;;;20.30;99.90;;;;;;5021089;28;21660;-69
2022/06/13 09:36:44;;;;;;;19.53;17.90;;;19.60;99.90;;;;;;5021286;28;20467;-68
2022/06/13 09:39:13;;;;;;;17.30;16.20;;;19.60;99.90;;;;;;5021477;28;20471;-69
2022/06/13 09:41:57;;;;;;;22.27;17.50;;;20.60;99.90;;;;;;5044251;28;20525;-68
2022/06/13 09:44:34;;;;;;;19.03;16.60;;;20.70;99.90;;;;;;5046151;28;20491;-70
2022/06/13 09:47:11;;;;;;;18.60;17.00;;;20.40;99.90;;;;;;5048550;28;20511;-67
2022/06/13 09:49:48;;;;;;;17.93;16.43;;;20.40;99.90;;;;;;5029824;28;21045;-67
2022/06/13 09:52:22;;;;;;;18.40;16.87;;;20.20;99.90;;;;;;5022044;28;21107;-68
2022/06/13 09:54:58;;;;;;;18.33;16.87;;;19.80;99.90;;;;;;5021084;28;20482;-69
2022/06/13 09:57:35;;;;;;;17.43;15.90;;;19.30;99.90;;;;;;5022394;28;20476;-69
2022/06/13 10:00:09;;;;;;;18.80;17.20;;;19.20;99.90;;;;;;5022651;28;20463;-68
2022/06/13 10:02:49;;;;;;;18.20;16.50;;;19.30;99.90;;;;;;5021459;28;20959;-68
2022/06/13 10:05:32;;;;;;;17.90;16.37;;;19.50;99.90;;;;;;5021965;28;20468;-68
2022/06/13 10:08:12;;;;;;;17.90;16.37;;;20.40;99.90;;;;;;5021288;28;21488;-70
2022/06/13 10:10:46;;;;;;;18.57;17.13;;;20.80;99.90;;;;;;5021936;28;20460;-67
2022/06/13 10:13:23;;;;;;;18.07;16.60;;;21.20;99.90;;;;;;5021189;28;20472;-67
2022/06/13 10:16:02;;;;;;;16.97;15.77;;;21.30;99.90;;;;;;5021492;28;20620;-68
2022/06/13 10:18:47;;;;;;;17.53;16.03;;;21.50;99.90;;;;;;5021770;28;20487;-67
2022/06/13 10:21:24;;;;;;;18.53;16.93;;;21.70;99.90;;;;;;5021976;28;20900;-66
2022/06/13 10:24:03;;;;;;;18.40;16.90;;;22.50;99.90;;;;;;5033661;28;20470;-67
2022/06/13 10:26:38;;;;;;;18.07;16.57;;;22.40;99.70;;;;;;5019599;28;20800;-68
2022/06/13 10:29:18;;;;;;;17.20;15.90;;;22.30;99.10;;;;;;5031601;28;21060;-67
2022/06/13 10:32:00;;;;;;;16.50;15.30;;;22.20;98.70;;;;;;5042875;28;20804;-67
2022/06/13 10:34:43;;;;;;;18.10;16.37;;;21.60;99.90;;;;;;5025437;28;20467;-68
2022/06/13 10:37:20;;;;;;;17.47;15.73;;;21.40;99.10;;;;;;5022199;28;20479;-68
2022/06/13 10:39:49;;;;;;;16.70;15.60;;;21.70;98.20;;;;;;5019932;28;20643;-69
2022/06/13 10:42:21;;;;;;;17.07;15.63;;;22.10;97.80;;;;;;5020648;28;20459;-67
2022/06/13 10:44:48;;;;;;;16.30;15.10;;;22.00;98.20;;;;;;5020991;28;20533;-66
2022/06/13 10:47:19;;;;;;;17.13;15.70;;;21.70;98.50;;;;;;5020181;28;21181;-68
2022/06/13 10:49:52;;;;;;;17.73;15.90;;;21.50;99.80;;;;;;5023113;28;21073;-67
2022/06/13 10:52:24;;;;;;;17.27;15.80;;;21.30;99.00;;;;;;5020277;28;20460;-68
2022/06/13 10:54:55;;;;;;;17.27;16.03;;;21.80;99.90;;;;;;5021100;28;20582;-69
2022/06/13 10:57:28;;;;;;;17.63;16.03;;;22.10;98.30;;;;;;5020852;28;21053;-67
2022/06/13 11:00:14;;;;;;;17.13;15.83;;;22.40;97.70;;;;;;5021424;28;20467;-69
2022/06/13 11:02:41;;;;;;;14.90;14.00;;;21.80;97.20;;;;;;5019862;28;20538;-68
2022/06/13 11:05:12;;;;;;;16.57;14.93;;;21.60;97.80;;;;;;5021076;28;20471;-67
2022/06/13 11:07:45;;;;;;;17.27;15.57;;;21.50;98.00;;;;;;5021160;28;20498;-67
2022/06/13 11:10:30;;;;;;;16.80;15.70;;;21.90;97.50;;;;;;5022711;28;20464;-68
2022/06/13 11:12:58;;;;;;;25.63;16.40;;;22.60;97.70;;;;;;5021563;28;20462;-68
2022/06/13 11:24:03;;;;;;;18.33;16.73;;;26.00;90.10;;;;;;5022211;28;20989;-68
2022/06/13 11:29:23;;;;;;;16.97;15.70;;;25.40;85.30;;;;;;5025754;28;20559;-69
2022/06/13 11:31:51;;;;;;;16.77;15.57;;;25.00;89.50;;;;;;5024132;28;20475;-69
2022/06/13 11:34:26;;;;;;;17.53;15.77;;;24.90;90.50;;;;;;5024764;28;20981;-70
2022/06/13 11:37:02;;;;;;;17.30;15.87;;;24.20;87.80;;;;;;5025390;28;20604;-68
2022/06/13 11:39:35;;;;;;;19.00;16.47;;;24.30;90.00;;;;;;5025155;28;20463;-68
2022/06/13 11:42:04;;;;;;;17.07;15.80;;;24.00;86.90;;;;;;5022949;28;20456;-68
2022/06/13 11:44:32;;;;;;;17.70;16.27;;;23.40;90.00;;;;;;5024228;28;20561;-68
2022/06/13 11:47:01;;;;;;;18.30;16.87;;;23.30;90.90;;;;;;5026011;28;20494;-69
2022/06/13 11:49:34;;;;;;;16.80;15.53;;;23.40;90.20;;;;;;5025003;28;20466;-69
2022/06/13 11:55:04;;;;;;;15.87;14.80;;;22.40;88.90;;;;;;5022982;28;20464;-68
2022/06/13 11:57:34;;;;;;;15.60;14.60;;;21.40;90.40;;;;;;5023994;28;20907;-69
2022/06/13 12:00:05;;;;;;;15.60;14.63;;;20.80;91.00;;;;;;5023815;28;20938;-67
2022/06/13 12:02:54;;;;;;;16.43;15.13;;;20.70;91.30;;;;;;5023733;28;20561;-68
2022/06/13 12:05:28;;;;;;;16.07;15.07;;;22.00;88.10;;;;;;5023280;28;20522;-68
2022/06/13 12:07:59;;;;;;;15.47;14.47;;;23.30;86.50;;;;;;5023582;28;20986;-70
2022/06/13 12:10:28;;;;;;;16.90;15.40;;;23.80;86.10;;;;;;5024837;28;21055;-68
2022/06/13 12:12:55;;;;;;;17.37;16.03;;;23.80;82.70;;;;;;5023423;28;20460;-70
2022/06/13 12:15:31;;;;;;;16.63;15.63;;;23.60;85.20;;;;;;5023018;28;20463;-69
2022/06/13 12:18:04;;;;;;;16.23;15.17;;;24.00;81.50;;;;;;5024717;28;20490;-67
2022/06/13 12:20:40;;;;;;;15.57;14.67;;;24.40;84.70;;;;;;5024059;28;21144;-67
2022/06/13 12:23:10;;;;;;;15.50;14.60;;;23.80;73.10;;;;;;5023879;28;20464;-67
2022/06/13 12:25:46;;;;;;;15.70;14.80;;;23.10;79.40;;;;;;5024734;28;20475;-69
2022/06/13 12:28:15;;;;;;;16.37;15.00;;;22.70;80.40;;;;;;5024239;28;20499;-67
2022/06/13 12:30:51;;;;;;;15.30;14.50;;;22.60;85.90;;;;;;5024746;28;20934;-67
2022/06/13 12:33:33;;;;;;;20.53;15.57;;;21.90;86.90;;;;;;5022465;28;20467;-67
2022/06/13 12:36:15;;;;;;;16.27;15.33;;;21.70;90.50;;;;;;5031216;28;20474;-66
2022/06/13 12:39:01;;;;;;;16.57;15.27;;;21.30;90.10;;;;;;5047273;28;20475;-66
2022/06/13 12:41:41;;;;;;;21.70;15.10;;;21.10;90.50;;;;;;5026422;28;20857;-67
2022/06/13 12:44:40;;;;;;;15.70;14.80;;;22.10;91.30;;;;;;5023454;28;20944;-66
2022/06/13 12:47:33;;;;;;;15.60;14.70;;;23.30;86.80;;;;;;5022630;28;20764;-67
2022/06/13 12:50:15;;;;;;;15.43;14.50;;;24.30;83.70;;;;;;5023661;28;20458;-67
2022/06/13 12:52:58;;;;;;;15.80;14.70;;;25.20;82.00;;;;;;5023685;28;20464;-68
2022/06/13 12:55:39;;;;;;;16.20;15.10;;;25.20;79.20;;;;;;5023099;28;20478;-67
2022/06/13 12:58:28;;;;;;;15.10;14.20;;;24.30;75.70;;;;;;5022400;28;20467;-66
2022/06/13 13:01:02;;;;;;;16.43;15.33;;;23.30;73.30;;;;;;5023594;28;21103;-66
2022/06/13 13:04:11;;;;;;;15.60;14.57;;;22.50;78.50;;;;;;5022966;28;20470;-65
2022/06/13 13:06:45;;;;;;;15.73;14.63;;;22.60;82.10;;;;;;5023390;28;21127;-69
2022/06/13 13:09:32;;;;;;;15.73;14.80;;;22.50;82.80;;;;;;5024031;28;21022;-68
2022/06/13 13:12:13;;;;;;;15.80;14.90;;;22.20;83.10;;;;;;5004358;28;21486;-68
2022/06/13 13:14:49;;;;;;;15.40;14.50;;;21.90;84.90;;;;;;5023931;28;21657;-65
2022/06/13 13:17:26;;;;;;;15.00;14.20;;;21.20;85.00;;;;;;5022663;28;20478;-64
2022/06/13 13:20:01;;;;;;;16.33;14.70;;;20.60;87.30;;;;;;5023693;28;20469;-66
2022/06/13 13:22:34;;;;;;;16.30;14.60;;;20.50;87.70;;;;;;5022394;28;20463;-67
2022/06/13 13:25:11;;;;;;;16.10;14.83;;;20.40;90.50;;;;;;5022666;28;20471;-65